createdAt,value
2023-05-23T00:01:15.252Z,5.77
2023-05-23T00:03:42.836Z,6.90
2023-05-23T00:06:10.366Z,8.17
2023-05-23T00:08:37.629Z,6.87
2023-05-23T00:11:04.865Z,6.17
2023-05-23T00:13:34.864Z,5.53
2023-05-23T00:16:02.682Z,7.13
2023-05-23T00:18:30.749Z,5.33
2023-05-23T00:20:59.145Z,6.33
2023-05-23T00:23:26.377Z,6.43
2023-05-23T00:25:54.236Z,7.10
2023-05-23T00:28:21.549Z,5.47
2023-05-23T00:30:51.826Z,6.57
2023-05-23T00:33:22.399Z,8.57
2023-05-23T00:35:49.886Z,5.40
2023-05-23T00:38:17.612Z,6.40
2023-05-23T00:40:44.818Z,7.93
2023-05-23T00:43:12.514Z,8.53
2023-05-23T00:45:39.902Z,7.10
2023-05-23T00:48:07.715Z,7.10
2023-05-23T00:50:36.221Z,8.80
2023-05-23T00:53:03.649Z,6.67
2023-05-23T00:55:31.232Z,6.37
2023-05-23T00:57:58.599Z,8.43
2023-05-23T01:00:26.228Z,6.50
2023-05-23T01:02:53.963Z,5.47
2023-05-23T01:05:25.129Z,8.03
2023-05-23T01:07:52.703Z,6.47
2023-05-23T01:10:26.105Z,6.53
2023-05-23T01:12:56.142Z,6.77
2023-05-23T01:15:24.992Z,5.00
2023-05-23T01:17:52.318Z,5.63
2023-05-23T01:20:23.580Z,6.07
2023-05-23T01:23:02.569Z,6.23
2023-05-23T01:25:40.663Z,8.30
2023-05-23T01:28:09.088Z,5.90
2023-05-23T01:30:37.606Z,5.70
2023-05-23T01:33:05.688Z,7.07
2023-05-23T01:35:33.516Z,5.30
2023-05-23T01:38:00.747Z,10.63
2023-05-23T01:40:28.026Z,6.43
2023-05-23T01:42:57.439Z,7.43
2023-05-23T01:45:26.854Z,5.60
2023-05-23T01:47:54.580Z,6.10
2023-05-23T01:50:22.303Z,5.90
2023-05-23T01:52:49.782Z,6.67
2023-05-23T01:55:18.953Z,6.37
2023-05-23T01:57:49.796Z,6.13
2023-05-23T02:00:17.329Z,5.97
2023-05-23T02:02:44.649Z,7.07
2023-05-23T02:05:12.037Z,6.13
2023-05-23T02:07:39.334Z,6.90
2023-05-23T02:10:08.999Z,5.50
2023-05-23T02:12:36.443Z,6.50
2023-05-23T02:15:03.963Z,6.60
2023-05-23T02:17:31.233Z,7.20
2023-05-23T02:19:58.540Z,7.20
2023-05-23T02:22:25.939Z,5.63
2023-05-23T02:24:53.279Z,6.10
2023-05-23T02:27:20.654Z,6.50
2023-05-23T02:29:47.912Z,6.30
2023-05-23T02:32:15.239Z,6.07
2023-05-23T02:34:42.476Z,7.30
2023-05-23T02:37:09.757Z,6.30
2023-05-23T02:39:37.401Z,7.27
2023-05-23T02:42:04.958Z,5.93
2023-05-23T02:44:32.443Z,8.03
2023-05-23T02:46:59.652Z,6.97
2023-05-23T02:49:26.945Z,6.17
2023-05-23T02:51:54.162Z,5.97
2023-05-23T02:54:21.712Z,7.03
2023-05-23T02:56:50.610Z,6.90
2023-05-23T02:59:17.993Z,6.73
2023-05-23T03:01:45.414Z,6.87
2023-05-23T03:04:13.760Z,7.07
2023-05-23T03:06:42.236Z,8.23
2023-05-23T03:09:10.110Z,7.87
2023-05-23T03:11:37.829Z,8.47
2023-05-23T03:14:05.133Z,9.50
2023-05-23T03:16:32.464Z,6.37
2023-05-23T03:19:00.796Z,6.73
2023-05-23T03:21:28.145Z,8.37
2023-05-23T03:23:55.549Z,6.77
2023-05-23T03:26:22.968Z,6.57
2023-05-23T03:28:51.385Z,6.23
2023-05-23T03:31:18.922Z,10.13
2023-05-23T03:33:46.287Z,8.23
2023-05-23T03:36:13.586Z,10.43
2023-05-23T03:38:40.874Z,6.97
2023-05-23T03:41:08.217Z,7.00
2023-05-23T03:43:35.532Z,6.63
2023-05-23T03:46:02.926Z,9.57
2023-05-23T03:48:30.641Z,6.57
2023-05-23T03:50:57.905Z,8.30
2023-05-23T03:53:25.183Z,7.63
2023-05-23T03:55:54.089Z,6.87
2023-05-23T03:58:21.626Z,8.17
2023-05-23T04:00:48.896Z,8.33
2023-05-23T04:03:17.640Z,9.33
2023-05-23T04:05:45.320Z,8.10
2023-05-23T04:08:13.134Z,10.90
2023-05-23T04:10:40.563Z,7.57
2023-05-23T04:13:07.850Z,7.83
2023-05-23T04:15:35.455Z,6.93
2023-05-23T04:18:03.804Z,7.30
2023-05-23T04:20:31.563Z,6.53
2023-05-23T04:22:58.886Z,7.47
2023-05-23T04:25:26.415Z,8.43
2023-05-23T04:27:55.828Z,9.07
2023-05-23T04:30:23.375Z,8.53
2023-05-23T04:32:50.729Z,9.07
2023-05-23T04:35:18.022Z,9.07
2023-05-23T04:37:45.651Z,10.00
2023-05-23T04:40:13.594Z,7.37
2023-05-23T04:42:42.422Z,7.43
2023-05-23T04:45:10.139Z,6.33
2023-05-23T04:47:37.526Z,6.60
2023-05-23T04:50:05.611Z,7.73
2023-05-23T04:52:34.110Z,6.90
2023-05-23T04:55:01.859Z,5.90
2023-05-23T04:57:29.572Z,6.67
2023-05-23T04:59:57.478Z,6.47
2023-05-23T05:02:24.723Z,7.23
2023-05-23T05:04:52.014Z,6.50
2023-05-23T05:07:19.308Z,6.90
2023-05-23T05:09:46.537Z,9.33
2023-05-23T05:12:13.752Z,6.67
2023-05-23T05:14:41.096Z,7.63
2023-05-23T05:17:08.485Z,6.00
2023-05-23T05:19:35.805Z,6.70
2023-05-23T05:22:03.339Z,6.57
2023-05-23T05:24:30.595Z,5.70
2023-05-23T05:26:57.836Z,7.77
2023-05-23T05:29:25.359Z,6.10
2023-05-23T05:31:53.296Z,7.77
2023-05-23T05:34:20.984Z,6.47
2023-05-23T05:36:48.430Z,7.73
2023-05-23T05:39:16.039Z,6.60
2023-05-23T05:41:43.381Z,6.90
2023-05-23T05:44:10.763Z,9.37
2023-05-23T05:46:38.168Z,6.77
2023-05-23T05:49:05.502Z,6.40
2023-05-23T05:51:32.772Z,9.83
2023-05-23T05:54:00.078Z,7.73
2023-05-23T05:56:28.064Z,7.73
2023-05-23T05:58:55.340Z,6.83
2023-05-23T06:01:23.463Z,8.37
2023-05-23T06:03:51.009Z,9.43
2023-05-23T06:06:18.348Z,6.83
2023-05-23T06:08:45.691Z,7.97
2023-05-23T06:11:12.966Z,9.50
2023-05-23T06:13:40.218Z,7.47
2023-05-23T06:16:07.597Z,6.57
2023-05-23T06:18:34.997Z,13.30
2023-05-23T06:21:02.407Z,11.37
2023-05-23T06:23:29.750Z,7.30
2023-05-23T06:25:59.042Z,8.33
2023-05-23T06:28:26.652Z,6.60
2023-05-23T06:30:53.932Z,8.23
2023-05-23T06:33:21.227Z,7.37
2023-05-23T06:35:48.494Z,6.87
2023-05-23T06:38:17.682Z,7.40
2023-05-23T06:40:45.363Z,6.60
2023-05-23T06:43:12.686Z,6.47
2023-05-23T06:45:40.078Z,6.10
2023-05-23T06:48:07.484Z,6.40
2023-05-23T06:50:34.776Z,11.90
2023-05-23T06:53:02.022Z,6.53
2023-05-23T06:55:30.526Z,7.60
2023-05-23T06:57:57.798Z,6.37
2023-05-23T07:00:25.037Z,7.93
2023-05-23T07:02:52.396Z,8.27
2023-05-23T07:05:19.786Z,7.47
2023-05-23T07:07:48.099Z,5.83
2023-05-23T07:10:15.706Z,6.50
2023-05-23T07:12:42.996Z,8.40
2023-05-23T07:15:11.085Z,7.70
2023-05-23T07:17:38.338Z,7.03
2023-05-23T07:20:05.746Z,6.57
2023-05-23T07:22:32.978Z,5.80
2023-05-23T07:25:00.668Z,8.73
2023-05-23T07:27:28.017Z,8.37
2023-05-23T07:29:55.278Z,7.57
2023-05-23T07:32:22.539Z,7.07
2023-05-23T07:34:49.805Z,8.10
2023-05-23T07:37:17.046Z,7.07
2023-05-23T07:39:44.362Z,7.10
2023-05-23T07:42:11.637Z,7.30
2023-05-23T07:44:38.881Z,6.70
2023-05-23T07:47:06.257Z,7.33
2023-05-23T07:49:33.676Z,7.37
2023-05-23T07:52:01.019Z,7.53
2023-05-23T07:54:28.324Z,7.23
2023-05-23T07:56:55.832Z,7.00
2023-05-23T07:59:23.088Z,7.33
2023-05-23T08:01:50.739Z,5.83
2023-05-23T08:04:18.667Z,7.60
2023-05-23T08:07:00.908Z,7.77
2023-05-23T08:09:32.044Z,6.50
2023-05-23T08:11:59.304Z,6.27
2023-05-23T08:14:42.310Z,7.00
2023-05-23T08:17:15.281Z,7.33
2023-05-23T08:19:42.658Z,5.90
2023-05-23T08:22:10.039Z,8.73
2023-05-23T08:24:37.278Z,6.37
2023-05-23T08:27:04.643Z,6.73
2023-05-23T08:29:32.244Z,6.10
2023-05-23T08:31:59.501Z,6.87
2023-05-23T08:34:26.774Z,6.33
2023-05-23T08:36:54.050Z,8.17
2023-05-23T08:39:21.331Z,6.53
2023-05-23T08:41:48.818Z,7.23
2023-05-23T08:44:16.226Z,5.90
2023-05-23T08:46:46.442Z,7.37
2023-05-23T08:49:14.424Z,6.37
2023-05-23T08:51:44.353Z,6.80
2023-05-23T08:54:13.330Z,6.30
2023-05-23T08:56:41.396Z,7.80
2023-05-23T08:59:11.124Z,7.43
2023-05-23T09:01:40.116Z,6.97
2023-05-23T09:04:07.876Z,6.37
2023-05-23T09:06:35.825Z,7.17
2023-05-23T09:09:06.598Z,8.40
2023-05-23T09:11:36.765Z,8.03
2023-05-23T09:14:08.952Z,6.03
2023-05-23T09:16:36.316Z,9.57
2023-05-23T09:19:13.179Z,7.33
2023-05-23T09:21:44.662Z,6.17
2023-05-23T09:24:12.362Z,6.37
2023-05-23T09:26:39.615Z,6.93
2023-05-23T09:29:07.833Z,6.80
2023-05-23T09:31:35.364Z,7.80
2023-05-23T09:34:03.029Z,6.13
2023-05-23T09:36:32.683Z,9.07
2023-05-23T09:39:03.366Z,7.83
2023-05-23T09:41:31.879Z,9.63
2023-05-23T09:44:00.185Z,7.90
2023-05-23T09:46:30.753Z,9.63
2023-05-23T09:49:00.232Z,7.80
2023-05-23T09:51:28.347Z,8.73
2023-05-23T09:53:57.097Z,7.10
2023-05-23T09:56:25.444Z,9.03
2023-05-23T09:58:53.203Z,8.20
2023-05-23T10:01:20.647Z,9.23
2023-05-23T10:03:55.114Z,8.63
2023-05-23T10:06:27.107Z,7.67
2023-05-23T10:09:05.207Z,9.27
2023-05-23T10:11:53.153Z,9.30
2023-05-23T10:14:20.597Z,8.00
2023-05-23T10:16:56.937Z,7.20
2023-05-23T10:19:39.570Z,7.17
2023-05-23T10:22:09.528Z,8.37
2023-05-23T10:24:37.245Z,7.50
2023-05-23T10:27:04.549Z,8.23
2023-05-23T10:29:33.706Z,6.87
2023-05-23T10:32:02.719Z,10.37
2023-05-23T10:34:48.819Z,6.23
2023-05-23T10:37:21.375Z,6.30
2023-05-23T10:40:14.822Z,6.73
2023-05-23T10:42:54.444Z,8.83
2023-05-23T10:45:22.690Z,9.43
2023-05-23T10:47:51.199Z,7.87
2023-05-23T10:50:32.997Z,7.57
2023-05-23T10:53:03.672Z,7.37
2023-05-23T10:55:35.704Z,7.97
2023-05-23T10:58:23.390Z,7.93
2023-05-23T11:00:57.833Z,11.17
2023-05-23T11:03:45.438Z,8.83
2023-05-23T11:06:36.795Z,6.53
2023-05-23T11:09:08.330Z,8.93
2023-05-23T11:11:54.198Z,12.80
2023-05-23T11:14:32.435Z,9.57
2023-05-23T11:17:00.728Z,9.20
2023-05-23T11:19:29.403Z,9.73
2023-05-23T11:21:56.834Z,8.27
2023-05-23T11:24:24.407Z,9.77
2023-05-23T11:27:00.027Z,10.17
2023-05-23T11:29:30.870Z,8.90
2023-05-23T11:31:58.482Z,9.53
2023-05-23T11:34:28.734Z,7.90
2023-05-23T11:36:56.387Z,9.20
2023-05-23T11:39:24.239Z,10.20
2023-05-23T11:42:00.004Z,9.63
2023-05-23T11:44:27.501Z,7.93
2023-05-23T11:47:01.897Z,8.80
2023-05-23T11:49:30.076Z,8.93
2023-05-23T11:52:00.166Z,9.43
2023-05-23T11:54:27.582Z,9.37
2023-05-23T11:56:55.992Z,8.67
2023-05-23T11:59:26.293Z,8.60
2023-05-23T12:01:54.131Z,8.43
2023-05-23T12:04:21.416Z,11.63
2023-05-23T12:06:49.346Z,9.23
2023-05-23T12:09:16.939Z,8.93
2023-05-23T12:11:45.820Z,9.50
2023-05-23T12:14:17.484Z,10.00
2023-05-23T12:16:48.300Z,8.53
2023-05-23T12:19:17.458Z,9.13
2023-05-23T12:21:48.777Z,9.10
2023-05-23T12:24:25.120Z,9.33
2023-05-23T12:27:02.741Z,10.60
2023-05-23T12:29:33.680Z,8.70
2023-05-23T12:32:02.817Z,8.83
2023-05-23T12:34:30.147Z,9.30
2023-05-23T12:37:18.036Z,9.07
2023-05-23T12:39:46.234Z,10.30
2023-05-23T12:42:13.823Z,9.53
2023-05-23T12:44:43.666Z,10.37
2023-05-23T12:47:11.041Z,9.97
2023-05-23T12:49:38.808Z,9.40
2023-05-23T12:52:06.343Z,7.67
2023-05-23T12:54:33.684Z,8.50
2023-05-23T12:57:01.012Z,8.00
2023-05-23T12:59:28.287Z,6.80
2023-05-23T13:01:55.894Z,7.90
2023-05-23T13:04:23.257Z,7.67
2023-05-23T13:06:50.553Z,6.50
2023-05-23T13:09:17.968Z,7.90
2023-05-23T13:11:45.300Z,6.60
2023-05-23T13:14:13.719Z,6.53
2023-05-23T13:16:41.030Z,8.20
2023-05-23T13:19:08.777Z,7.70
2023-05-23T13:21:36.143Z,9.00
2023-05-23T13:24:03.370Z,7.47
2023-05-23T13:26:30.634Z,10.07
2023-05-23T13:28:57.887Z,8.10
2023-05-23T13:31:25.475Z,8.87
2023-05-23T13:33:52.868Z,7.93
2023-05-23T13:36:20.268Z,7.97
2023-05-23T13:38:47.573Z,8.17
2023-05-23T13:41:14.925Z,7.70
2023-05-23T13:43:42.191Z,7.10
2023-05-23T13:46:09.551Z,8.47
2023-05-23T13:48:36.924Z,8.60
2023-05-23T13:51:04.331Z,7.20
2023-05-23T13:53:31.653Z,7.80
2023-05-23T13:55:59.042Z,7.33
2023-05-23T13:58:26.320Z,8.13
2023-05-23T14:00:54.147Z,6.57
2023-05-23T14:03:21.532Z,6.37
2023-05-23T14:05:48.863Z,8.07
2023-05-23T14:08:16.329Z,6.30
2023-05-23T14:10:43.780Z,7.90
2023-05-23T14:13:12.057Z,6.97
2023-05-23T14:15:39.727Z,7.23
2023-05-23T14:18:07.637Z,7.17
2023-05-23T14:20:34.941Z,6.07
2023-05-23T14:23:02.206Z,6.87
2023-05-23T14:25:30.614Z,6.37
2023-05-23T14:27:57.814Z,6.33
2023-05-23T14:30:25.068Z,7.00
2023-05-23T14:32:52.452Z,8.07
2023-05-23T14:35:19.730Z,6.70
2023-05-23T14:37:46.973Z,6.93
2023-05-23T14:40:16.197Z,7.43
2023-05-23T14:42:43.489Z,6.50
2023-05-23T14:45:10.966Z,6.80
2023-05-23T14:47:38.430Z,6.80
2023-05-23T14:50:05.916Z,8.53
2023-05-23T14:52:33.177Z,7.37
2023-05-23T14:55:01.137Z,8.17
2023-05-23T14:57:28.709Z,7.20
2023-05-23T14:59:56.563Z,7.07
2023-05-23T15:02:23.900Z,6.67
2023-05-23T15:04:51.234Z,7.27
2023-05-23T15:07:18.557Z,6.83
2023-05-23T15:09:47.319Z,7.25
2023-05-23T15:12:15.465Z,6.60
2023-05-23T15:14:43.802Z,7.53
2023-05-23T15:17:13.121Z,7.80
2023-05-23T15:19:43.121Z,7.13
2023-05-23T15:22:18.750Z,8.10
2023-05-23T15:25:00.613Z,8.83
2023-05-23T15:27:27.886Z,8.00
2023-05-23T15:29:55.169Z,8.43
2023-05-23T15:32:22.589Z,8.80
2023-05-23T15:34:49.918Z,7.27
2023-05-23T15:37:18.122Z,6.50
2023-05-23T15:39:45.448Z,7.47
2023-05-23T15:42:12.740Z,7.47
2023-05-23T15:44:40.008Z,6.80
2023-05-23T15:47:07.303Z,9.43
2023-05-23T15:49:34.616Z,9.60
2023-05-23T15:52:01.871Z,7.97
2023-05-23T15:54:29.118Z,8.60
2023-05-23T15:56:56.353Z,8.90
2023-05-23T15:59:23.611Z,7.00
2023-05-23T16:01:50.937Z,7.80
2023-05-23T16:04:18.285Z,7.00
2023-05-23T16:06:45.646Z,7.43
2023-05-23T16:09:12.839Z,8.30
2023-05-23T16:11:40.118Z,7.57
2023-05-23T16:14:07.448Z,8.60
2023-05-23T16:16:35.066Z,8.43
2023-05-23T16:19:02.450Z,8.37
2023-05-23T16:21:29.714Z,7.90
2023-05-23T16:23:57.004Z,8.10
2023-05-23T16:26:24.308Z,7.10
2023-05-23T16:28:51.600Z,10.13
2023-05-23T16:31:18.872Z,9.03
2023-05-23T16:33:46.354Z,7.80
2023-05-23T16:36:13.607Z,7.80
2023-05-23T16:38:40.860Z,8.67
2023-05-23T16:41:08.082Z,7.73
2023-05-23T16:43:35.402Z,8.77
2023-05-23T16:46:02.826Z,8.40
2023-05-23T16:48:30.114Z,8.57
2023-05-23T16:50:57.670Z,9.23
2023-05-23T16:53:24.995Z,9.70
2023-05-23T16:55:52.306Z,8.00
2023-05-23T16:58:21.205Z,9.83
2023-05-23T17:00:48.886Z,7.73
2023-05-23T17:03:16.380Z,8.10
2023-05-23T17:05:44.302Z,9.10
2023-05-23T17:08:11.935Z,9.77
2023-05-23T17:10:39.303Z,9.07
2023-05-23T17:13:06.762Z,7.93
2023-05-23T17:15:34.046Z,6.90
2023-05-23T17:18:01.544Z,7.57
2023-05-23T17:20:28.858Z,7.83
2023-05-23T17:22:56.449Z,7.53
2023-05-23T17:25:23.984Z,8.23
2023-05-23T17:27:51.247Z,7.43
2023-05-23T17:30:18.812Z,8.47
2023-05-23T17:32:47.426Z,8.30
2023-05-23T17:35:14.840Z,7.57
2023-05-23T17:37:43.777Z,8.10
2023-05-23T17:40:14.324Z,8.03
2023-05-23T17:42:41.764Z,8.10
2023-05-23T17:45:09.861Z,9.40
2023-05-23T17:47:37.436Z,8.40
2023-05-23T17:50:06.321Z,8.10
2023-05-23T17:52:33.612Z,8.00
2023-05-23T17:55:00.996Z,7.70
2023-05-23T17:57:30.236Z,7.60
2023-05-23T17:59:58.090Z,8.50
2023-05-23T18:02:25.647Z,7.73
2023-05-23T18:04:52.991Z,8.37
2023-05-23T18:07:20.255Z,9.30
2023-05-23T18:09:48.395Z,8.07
2023-05-23T18:12:16.638Z,8.97
2023-05-23T18:14:44.044Z,8.80
2023-05-23T18:17:12.825Z,9.37
2023-05-23T18:19:40.586Z,9.80
2023-05-23T18:22:07.970Z,9.13
2023-05-23T18:24:35.294Z,7.70
2023-05-23T18:27:04.545Z,10.23
2023-05-23T18:29:32.083Z,10.30
2023-05-23T18:31:59.439Z,11.40
2023-05-23T18:34:29.146Z,8.03
2023-05-23T18:36:56.831Z,9.67
2023-05-23T18:39:24.194Z,8.17
2023-05-23T18:41:51.470Z,8.93
2023-05-23T18:44:20.644Z,8.03
2023-05-23T18:46:48.372Z,9.90
2023-05-23T18:49:15.819Z,9.70
2023-05-23T18:51:43.429Z,9.67
2023-05-23T18:54:11.894Z,8.00
2023-05-23T18:56:39.125Z,8.80
2023-05-23T18:59:13.605Z,8.37
2023-05-23T19:01:41.081Z,10.00
2023-05-23T19:04:08.496Z,7.87
2023-05-23T19:06:35.892Z,7.93
2023-05-23T19:09:03.869Z,9.67
2023-05-23T19:11:31.174Z,9.37
2023-05-23T19:13:58.409Z,9.87
2023-05-23T19:16:25.715Z,9.73
2023-05-23T19:18:53.304Z,8.50
2023-05-23T19:21:20.847Z,9.93
2023-05-23T19:23:48.154Z,10.23
2023-05-23T19:26:16.136Z,11.73
2023-05-23T19:28:44.289Z,9.70
2023-05-23T19:31:12.510Z,10.20
2023-05-23T19:33:39.795Z,10.13
2023-05-23T19:36:07.277Z,8.83
2023-05-23T19:38:34.544Z,9.80
2023-05-23T19:41:01.823Z,11.67
2023-05-23T19:43:29.073Z,9.77
2023-05-23T19:45:56.583Z,8.87
2023-05-23T19:48:23.833Z,9.83
2023-05-23T19:50:51.171Z,9.40
2023-05-23T19:53:18.503Z,9.63
2023-05-23T19:55:45.865Z,11.70
2023-05-23T19:58:13.131Z,11.93
2023-05-23T20:00:40.647Z,9.17
2023-05-23T20:03:08.471Z,9.43
2023-05-23T20:05:36.179Z,10.63
2023-05-23T20:08:03.632Z,10.10
2023-05-23T20:10:30.918Z,8.97
2023-05-23T20:12:58.247Z,9.47
2023-05-23T20:15:38.708Z,9.90
2023-05-23T20:18:07.756Z,9.17
2023-05-23T20:20:35.165Z,11.67
2023-05-23T20:23:02.445Z,11.27
2023-05-23T20:25:31.548Z,9.93
2023-05-23T20:27:58.813Z,10.10
2023-05-23T20:30:26.417Z,10.47
2023-05-23T20:32:54.342Z,10.60
2023-05-23T20:35:22.519Z,10.97
2023-05-23T20:37:53.703Z,9.50
2023-05-23T20:40:22.462Z,10.07
2023-05-23T20:42:50.101Z,12.23
2023-05-23T20:45:17.398Z,11.60
2023-05-23T20:47:44.834Z,11.70
2023-05-23T20:50:15.604Z,10.33
2023-05-23T20:52:43.512Z,10.20
2023-05-23T20:55:11.032Z,10.87
2023-05-23T20:57:38.519Z,11.13
2023-05-23T21:00:15.646Z,10.57
2023-05-23T21:02:43.705Z,9.97
2023-05-23T21:05:12.372Z,11.97
2023-05-23T21:07:39.870Z,10.93
2023-05-23T21:10:07.329Z,12.13
2023-05-23T21:12:34.644Z,10.33
2023-05-23T21:15:01.924Z,10.87
2023-05-23T21:17:29.147Z,10.60
2023-05-23T21:19:56.395Z,13.50
2023-05-23T21:22:23.673Z,12.07
2023-05-23T21:24:50.885Z,11.20
2023-05-23T21:27:18.105Z,11.17
2023-05-23T21:29:46.993Z,11.33
2023-05-23T21:32:14.467Z,10.77
2023-05-23T21:34:41.774Z,11.23
2023-05-23T21:37:09.242Z,11.93
2023-05-23T21:39:50.524Z,10.43
2023-05-23T21:42:19.229Z,11.70
2023-05-23T21:44:46.666Z,11.30
2023-05-23T21:47:14.046Z,11.80
2023-05-23T21:49:41.307Z,13.27
2023-05-23T21:52:08.551Z,12.33
2023-05-23T21:54:35.858Z,12.47
2023-05-23T21:57:03.167Z,12.43
2023-05-23T21:59:30.445Z,11.97
2023-05-23T22:01:57.927Z,12.17
2023-05-23T22:04:25.289Z,11.27
2023-05-23T22:06:52.637Z,11.80
2023-05-23T22:09:19.943Z,11.87
2023-05-23T22:11:47.239Z,11.30
2023-05-23T22:14:14.459Z,12.60
2023-05-23T22:16:41.832Z,12.13
2023-05-23T22:19:10.448Z,12.83
2023-05-23T22:21:37.936Z,11.10
2023-05-23T22:24:05.471Z,10.70
2023-05-23T22:26:32.732Z,10.73
2023-05-23T22:29:00.006Z,10.90
2023-05-23T22:31:28.871Z,10.27
2023-05-23T22:33:56.486Z,10.77
2023-05-23T22:36:23.703Z,10.93
2023-05-23T22:38:51.404Z,12.33
2023-05-23T22:41:18.841Z,10.03
2023-05-23T22:43:46.958Z,11.43
2023-05-23T22:46:14.821Z,11.73
2023-05-23T22:48:42.122Z,13.10
2023-05-23T22:51:12.443Z,12.23
2023-05-23T22:53:39.876Z,10.47
2023-05-23T22:56:07.152Z,11.33
2023-05-23T22:58:34.395Z,13.30
2023-05-23T23:01:01.653Z,10.47
2023-05-23T23:03:28.970Z,10.83
2023-05-23T23:05:57.488Z,11.20
2023-05-23T23:08:24.748Z,12.60
2023-05-23T23:10:52.075Z,10.43
2023-05-23T23:13:19.385Z,13.37
2023-05-23T23:15:49.707Z,12.00
2023-05-23T23:18:18.920Z,11.60
2023-05-23T23:20:47.063Z,11.43
2023-05-23T23:23:14.658Z,12.30
2023-05-23T23:25:42.002Z,12.03
2023-05-23T23:28:09.265Z,11.87
2023-05-23T23:30:36.531Z,11.93
2023-05-23T23:33:03.838Z,11.83
2023-05-23T23:35:31.088Z,12.87
2023-05-23T23:37:58.374Z,12.30
2023-05-23T23:40:25.998Z,12.80
2023-05-23T23:42:53.388Z,11.87
2023-05-23T23:45:20.961Z,13.43
2023-05-23T23:47:48.330Z,12.60
2023-05-23T23:50:16.175Z,11.47
2023-05-23T23:52:44.004Z,12.47
2023-05-23T23:55:11.300Z,12.03
2023-05-23T23:57:38.558Z,11.13
